sensor_id;sensor_type;location;lat;lon;timestamp;P1;durP1;ratioP1;P2;durP2;ratioP2
77748;SDS011;66938;52.084;5.228;2024-02-26T00:00:55;5.3;;;3.6;;
77748;SDS011;66938;52.084;5.228;2024-02-26T00:04:07;5.7;;;3.6;;
77748;SDS011;66938;52.084;5.228;2024-02-26T00:05:45;4.91;;;3.5;;
77748;SDS011;66938;52.084;5.228;2024-02-26T00:07:21;4.3;;;3.6;;
77748;SDS011;66938;52.084;5.228;2024-02-26T00:10:34;5.5;;;3.6;;
77748;SDS011;66938;52.084;5.228;2024-02-26T00:12:10;6.0;;;4.0;;
77748;SDS011;66938;52.084;5.228;2024-02-26T00:13:49;4.2;;;3.4;;
77748;SDS011;66938;52.084;5.228;2024-02-26T00:15:26;5.9;;;3.6;;
77748;SDS011;66938;52.084;5.228;2024-02-26T00:18:39;4.3;;;3.6;;
77748;SDS011;66938;52.084;5.228;2024-02-26T00:20:15;5.5;;;3.9;;
77748;SDS011;66938;52.084;5.228;2024-02-26T00:21:51;5.8;;;3.9;;
77748;SDS011;66938;52.084;5.228;2024-02-26T00:25:05;5.3;;;3.8;;
77748;SDS011;66938;52.084;5.228;2024-02-26T00:26:41;5.3;;;3.6;;
77748;SDS011;66938;52.084;5.228;2024-02-26T00:28:20;4.61;;;3.8;;
77748;SDS011;66938;52.084;5.228;2024-02-26T00:31:33;6.6;;;4.0;;
77748;SDS011;66938;52.084;5.228;2024-02-26T00:33:10;5.6;;;3.9;;
77748;SDS011;66938;52.084;5.228;2024-02-26T00:34:46;4.7;;;4.0;;
77748;SDS011;66938;52.084;5.228;2024-02-26T00:36:22;4.5;;;4.1;;
77748;SDS011;66938;52.084;5.228;2024-02-26T00:39:35;5.5;;;4.0;;
77748;SDS011;66938;52.084;5.228;2024-02-26T00:41:11;6.3;;;4.5;;
77748;SDS011;66938;52.084;5.228;2024-02-26T00:42:47;6.0;;;4.5;;
77748;SDS011;66938;52.084;5.228;2024-02-26T00:46:01;6.1;;;4.61;;
77748;SDS011;66938;52.084;5.228;2024-02-26T00:47:37;4.5;;;4.1;;
77748;SDS011;66938;52.084;5.228;2024-02-26T00:49:13;5.5;;;4.3;;
77748;SDS011;66938;52.084;5.228;2024-02-26T00:52:25;4.91;;;4.3;;
77748;SDS011;66938;52.084;5.228;2024-02-26T00:54:01;5.5;;;4.0;;
77748;SDS011;66938;52.084;5.228;2024-02-26T00:55:38;6.0;;;4.8;;
77748;SDS011;66938;52.084;5.228;2024-02-26T00:58:50;5.4;;;4.2;;
77748;SDS011;66938;52.084;5.228;2024-02-26T01:00:26;5.3;;;3.7;;
77748;SDS011;66938;52.084;5.228;2024-02-26T01:02:03;4.8;;;4.1;;
77748;SDS011;66938;52.084;5.228;2024-02-26T01:03:39;4.41;;;4.0;;
77748;SDS011;66938;52.084;5.228;2024-02-26T01:06:51;4.91;;;4.41;;
77748;SDS011;66938;52.084;5.228;2024-02-26T01:08:27;5.5;;;4.91;;
77748;SDS011;66938;52.084;5.228;2024-02-26T01:10:08;5.6;;;4.61;;
77748;SDS011;66938;52.084;5.228;2024-02-26T01:13:21;4.91;;;4.41;;
77748;SDS011;66938;52.084;5.228;2024-02-26T01:14:57;6.8;;;4.3;;
77748;SDS011;66938;52.084;5.228;2024-02-26T01:16:33;7.4;;;4.61;;
77748;SDS011;66938;52.084;5.228;2024-02-26T01:19:47;6.5;;;4.7;;
77748;SDS011;66938;52.084;5.228;2024-02-26T01:21:24;5.0;;;4.5;;
77748;SDS011;66938;52.084;5.228;2024-02-26T01:23:01;6.2;;;4.7;;
77748;SDS011;66938;52.084;5.228;2024-02-26T01:24:37;5.6;;;4.8;;
77748;SDS011;66938;52.084;5.228;2024-02-26T01:27:49;5.4;;;4.7;;
77748;SDS011;66938;52.084;5.228;2024-02-26T01:29:26;5.0;;;4.5;;
77748;SDS011;66938;52.084;5.228;2024-02-26T01:31:02;5.3;;;4.8;;
77748;SDS011;66938;52.084;5.228;2024-02-26T01:34:16;5.6;;;4.61;;
77748;SDS011;66938;52.084;5.228;2024-02-26T01:35:52;5.7;;;4.91;;
77748;SDS011;66938;52.084;5.228;2024-02-26T01:37:29;6.7;;;5.3;;
77748;SDS011;66938;52.084;5.228;2024-02-26T01:40:41;6.4;;;4.7;;
77748;SDS011;66938;52.084;5.228;2024-02-26T01:42:17;5.2;;;4.7;;
77748;SDS011;66938;52.084;5.228;2024-02-26T01:43:56;5.3;;;4.61;;
77748;SDS011;66938;52.084;5.228;2024-02-26T01:45:32;6.7;;;5.2;;
77748;SDS011;66938;52.084;5.228;2024-02-26T01:48:47;5.2;;;4.7;;
77748;SDS011;66938;52.084;5.228;2024-02-26T01:50:24;6.4;;;5.11;;
77748;SDS011;66938;52.084;5.228;2024-02-26T01:52:02;5.9;;;4.91;;
77748;SDS011;66938;52.084;5.228;2024-02-26T01:55:17;5.5;;;4.7;;
77748;SDS011;66938;52.084;5.228;2024-02-26T01:56:54;5.11;;;4.61;;
77748;SDS011;66938;52.084;5.228;2024-02-26T01:58:31;5.8;;;5.11;;
77748;SDS011;66938;52.084;5.228;2024-02-26T02:00:09;6.2;;;5.0;;
77748;SDS011;66938;52.084;5.228;2024-02-26T02:03:31;5.7;;;5.0;;
77748;SDS011;66938;52.084;5.228;2024-02-26T02:05:08;6.3;;;5.0;;
77748;SDS011;66938;52.084;5.228;2024-02-26T02:06:45;5.6;;;4.7;;
77748;SDS011;66938;52.084;5.228;2024-02-26T02:09:59;7.2;;;4.8;;
77748;SDS011;66938;52.084;5.228;2024-02-26T02:11:36;5.5;;;4.61;;
77748;SDS011;66938;52.084;5.228;2024-02-26T02:13:13;6.0;;;5.11;;
77748;SDS011;66938;52.084;5.228;2024-02-26T02:14:49;5.4;;;4.7;;
77748;SDS011;66938;52.084;5.228;2024-02-26T02:18:01;5.5;;;4.8;;
77748;SDS011;66938;52.084;5.228;2024-02-26T02:19:37;5.5;;;4.91;;
77748;SDS011;66938;52.084;5.228;2024-02-26T02:21:14;5.6;;;5.11;;
77748;SDS011;66938;52.084;5.228;2024-02-26T02:24:26;5.6;;;5.0;;
77748;SDS011;66938;52.084;5.228;2024-02-26T02:26:03;5.9;;;5.2;;
77748;SDS011;66938;52.084;5.228;2024-02-26T02:27:39;6.6;;;5.2;;
77748;SDS011;66938;52.084;5.228;2024-02-26T02:30:52;5.3;;;4.8;;
77748;SDS011;66938;52.084;5.228;2024-02-26T02:32:29;5.5;;;5.0;;
77748;SDS011;66938;52.084;5.228;2024-02-26T02:34:07;6.6;;;5.3;;
77748;SDS011;66938;52.084;5.228;2024-02-26T02:35:44;6.7;;;5.2;;
77748;SDS011;66938;52.084;5.228;2024-02-26T02:38:57;7.7;;;5.2;;
77748;SDS011;66938;52.084;5.228;2024-02-26T02:40:34;6.0;;;5.3;;
77748;SDS011;66938;52.084;5.228;2024-02-26T02:42:11;6.8;;;5.5;;
77748;SDS011;66938;52.084;5.228;2024-02-26T02:45:23;8.1;;;6.0;;
77748;SDS011;66938;52.084;5.228;2024-02-26T02:46:59;8.1;;;6.0;;
77748;SDS011;66938;52.084;5.228;2024-02-26T02:48:35;7.2;;;5.5;;
77748;SDS011;66938;52.084;5.228;2024-02-26T02:51:51;6.4;;;5.3;;
77748;SDS011;66938;52.084;5.228;2024-02-26T02:53:28;6.7;;;5.3;;
77748;SDS011;66938;52.084;5.228;2024-02-26T02:55:05;6.2;;;5.0;;
77748;SDS011;66938;52.084;5.228;2024-02-26T02:56:42;6.2;;;5.4;;
77748;SDS011;66938;52.084;5.228;2024-02-26T02:59:54;7.3;;;6.0;;
77748;SDS011;66938;52.084;5.228;2024-02-26T03:01:30;7.0;;;5.8;;
77748;SDS011;66938;52.084;5.228;2024-02-26T03:03:06;7.1;;;5.4;;
77748;SDS011;66938;52.084;5.228;2024-02-26T03:06:18;6.1;;;5.5;;
77748;SDS011;66938;52.084;5.228;2024-02-26T03:07:54;7.5;;;5.7;;
77748;SDS011;66938;52.084;5.228;2024-02-26T03:09:30;6.7;;;5.4;;
77748;SDS011;66938;52.084;5.228;2024-02-26T03:12:43;5.7;;;5.11;;
77748;SDS011;66938;52.084;5.228;2024-02-26T03:14:19;6.8;;;5.6;;
77748;SDS011;66938;52.084;5.228;2024-02-26T03:15:55;6.5;;;5.8;;
77748;SDS011;66938;52.084;5.228;2024-02-26T03:17:31;6.9;;;4.91;;
77748;SDS011;66938;52.084;5.228;2024-02-26T03:20:43;5.6;;;5.11;;
77748;SDS011;66938;52.084;5.228;2024-02-26T03:22:19;7.1;;;5.8;;
77748;SDS011;66938;52.084;5.228;2024-02-26T03:23:55;6.3;;;5.4;;
77748;SDS011;66938;52.084;5.228;2024-02-26T03:27:07;6.7;;;5.5;;
77748;SDS011;66938;52.084;5.228;2024-02-26T03:28:44;6.7;;;5.9;;
77748;SDS011;66938;52.084;5.228;2024-02-26T03:30:21;7.2;;;5.6;;
77748;SDS011;66938;52.084;5.228;2024-02-26T03:33:34;7.2;;;5.5;;
77748;SDS011;66938;52.084;5.228;2024-02-26T03:35:11;7.5;;;5.9;;
77748;SDS011;66938;52.084;5.228;2024-02-26T03:36:47;7.4;;;6.0;;
77748;SDS011;66938;52.084;5.228;2024-02-26T03:38:23;7.5;;;6.5;;
77748;SDS011;66938;52.084;5.228;2024-02-26T03:41:36;7.2;;;6.0;;
77748;SDS011;66938;52.084;5.228;2024-02-26T03:43:13;8.2;;;6.2;;
77748;SDS011;66938;52.084;5.228;2024-02-26T03:44:49;7.7;;;6.3;;
77748;SDS011;66938;52.084;5.228;2024-02-26T03:48:02;7.7;;;6.5;;
77748;SDS011;66938;52.084;5.228;2024-02-26T03:49:38;7.6;;;6.2;;
77748;SDS011;66938;52.084;5.228;2024-02-26T03:51:14;7.6;;;6.3;;
77748;SDS011;66938;52.084;5.228;2024-02-26T03:54:28;9.1;;;6.8;;
77748;SDS011;66938;52.084;5.228;2024-02-26T03:56:04;8.2;;;6.4;;
77748;SDS011;66938;52.084;5.228;2024-02-26T03:57:42;9.0;;;6.7;;
77748;SDS011;66938;52.084;5.228;2024-02-26T03:59:19;8.0;;;6.7;;
77748;SDS011;66938;52.084;5.228;2024-02-26T04:02:32;8.0;;;6.6;;
77748;SDS011;66938;52.084;5.228;2024-02-26T04:04:08;7.4;;;6.6;;
77748;SDS011;66938;52.084;5.228;2024-02-26T04:05:44;8.31;;;7.0;;
77748;SDS011;66938;52.084;5.228;2024-02-26T04:08:57;8.9;;;7.0;;
77748;SDS011;66938;52.084;5.228;2024-02-26T04:10:33;7.7;;;6.7;;
77748;SDS011;66938;52.084;5.228;2024-02-26T04:12:09;7.8;;;6.8;;
77748;SDS011;66938;52.084;5.228;2024-02-26T04:15:22;8.5;;;7.1;;
77748;SDS011;66938;52.084;5.228;2024-02-26T04:16:58;8.9;;;6.6;;
77748;SDS011;66938;52.084;5.228;2024-02-26T04:18:34;8.2;;;7.0;;
77748;SDS011;66938;52.084;5.228;2024-02-26T04:20:13;9.5;;;7.4;;
77748;SDS011;66938;52.084;5.228;2024-02-26T04:23:28;8.4;;;6.8;;
77748;SDS011;66938;52.084;5.228;2024-02-26T04:25:04;9.0;;;6.9;;
77748;SDS011;66938;52.084;5.228;2024-02-26T04:26:41;8.5;;;7.2;;
77748;SDS011;66938;52.084;5.228;2024-02-26T04:29:53;9.0;;;7.6;;
77748;SDS011;66938;52.084;5.228;2024-02-26T04:31:29;8.71;;;6.9;;
77748;SDS011;66938;52.084;5.228;2024-02-26T04:33:06;8.5;;;7.2;;
77748;SDS011;66938;52.084;5.228;2024-02-26T04:36:18;9.31;;;7.4;;
77748;SDS011;66938;52.084;5.228;2024-02-26T04:37:56;9.1;;;7.6;;
77748;SDS011;66938;52.084;5.228;2024-02-26T04:39:32;9.71;;;7.3;;
77748;SDS011;66938;52.084;5.228;2024-02-26T04:41:09;9.71;;;6.9;;
77748;SDS011;66938;52.084;5.228;2024-02-26T04:44:22;9.4;;;7.2;;
77748;SDS011;66938;52.084;5.228;2024-02-26T04:45:59;8.81;;;6.8;;
77748;SDS011;66938;52.084;5.228;2024-02-26T04:47:35;8.81;;;7.1;;
77748;SDS011;66938;52.084;5.228;2024-02-26T04:50:47;10.0;;;6.9;;
77748;SDS011;66938;52.084;5.228;2024-02-26T04:52:23;9.1;;;7.5;;
77748;SDS011;66938;52.084;5.228;2024-02-26T04:53:59;8.5;;;7.2;;
77748;SDS011;66938;52.084;5.228;2024-02-26T04:57:13;8.71;;;7.1;;
77748;SDS011;66938;52.084;5.228;2024-02-26T04:58:49;9.6;;;7.9;;
77748;SDS011;66938;52.084;5.228;2024-02-26T05:00:26;9.21;;;7.5;;
77748;SDS011;66938;52.084;5.228;2024-02-26T05:02:02;10.0;;;7.5;;
77748;SDS011;66938;52.084;5.228;2024-02-26T05:05:15;10.0;;;7.8;;
77748;SDS011;66938;52.084;5.228;2024-02-26T05:06:52;9.5;;;7.7;;
77748;SDS011;66938;52.084;5.228;2024-02-26T05:08:31;10.1;;;8.31;;
77748;SDS011;66938;52.084;5.228;2024-02-26T05:11:45;10.4;;;7.6;;
77748;SDS011;66938;52.084;5.228;2024-02-26T05:13:21;9.4;;;7.7;;
77748;SDS011;66938;52.084;5.228;2024-02-26T05:14:58;11.0;;;8.0;;
77748;SDS011;66938;52.084;5.228;2024-02-26T05:18:11;9.81;;;7.8;;
77748;SDS011;66938;52.084;5.228;2024-02-26T05:19:47;10.8;;;8.71;;
77748;SDS011;66938;52.084;5.228;2024-02-26T05:21:23;10.1;;;8.0;;
77748;SDS011;66938;52.084;5.228;2024-02-26T05:22:59;9.9;;;8.2;;
77748;SDS011;66938;52.084;5.228;2024-02-26T05:26:19;10.0;;;8.2;;
77748;SDS011;66938;52.084;5.228;2024-02-26T05:27:56;11.1;;;8.31;;
77748;SDS011;66938;52.084;5.228;2024-02-26T05:29:33;9.9;;;8.31;;
77748;SDS011;66938;52.084;5.228;2024-02-26T05:32:48;11.2;;;8.81;;
77748;SDS011;66938;52.084;5.228;2024-02-26T05:34:24;10.6;;;8.71;;
77748;SDS011;66938;52.084;5.228;2024-02-26T05:36:00;9.5;;;7.8;;
77748;SDS011;66938;52.084;5.228;2024-02-26T05:37:37;11.6;;;9.31;;
77748;SDS011;66938;52.084;5.228;2024-02-26T05:40:51;10.5;;;8.6;;
77748;SDS011;66938;52.084;5.228;2024-02-26T05:42:27;10.5;;;8.2;;
77748;SDS011;66938;52.084;5.228;2024-02-26T05:44:03;9.71;;;8.5;;
77748;SDS011;66938;52.084;5.228;2024-02-26T05:47:17;11.6;;;8.4;;
77748;SDS011;66938;52.084;5.228;2024-02-26T05:48:53;10.8;;;9.0;;
77748;SDS011;66938;52.084;5.228;2024-02-26T05:50:30;10.8;;;8.9;;
77748;SDS011;66938;52.084;5.228;2024-02-26T05:53:44;11.4;;;8.71;;
77748;SDS011;66938;52.084;5.228;2024-02-26T05:55:22;10.8;;;8.5;;
77748;SDS011;66938;52.084;5.228;2024-02-26T05:56:59;10.5;;;8.71;;
77748;SDS011;66938;52.084;5.228;2024-02-26T05:58:35;11.7;;;8.81;;
77748;SDS011;66938;52.084;5.228;2024-02-26T06:01:49;10.9;;;9.21;;
77748;SDS011;66938;52.084;5.228;2024-02-26T06:03:25;11.6;;;9.5;;
77748;SDS011;66938;52.084;5.228;2024-02-26T06:05:01;11.2;;;9.21;;
77748;SDS011;66938;52.084;5.228;2024-02-26T06:08:16;12.8;;;9.31;;
77748;SDS011;66938;52.084;5.228;2024-02-26T06:09:53;10.9;;;9.21;;
77748;SDS011;66938;52.084;5.228;2024-02-26T06:11:31;11.8;;;9.4;;
77748;SDS011;66938;52.084;5.228;2024-02-26T06:13:08;12.6;;;9.6;;
77748;SDS011;66938;52.084;5.228;2024-02-26T06:16:21;11.7;;;9.21;;
77748;SDS011;66938;52.084;5.228;2024-02-26T06:19:36;13.0;;;9.81;;
77748;SDS011;66938;52.084;5.228;2024-02-26T06:22:50;12.7;;;9.5;;
77748;SDS011;66938;52.084;5.228;2024-02-26T06:24:27;13.0;;;10.1;;
77748;SDS011;66938;52.084;5.228;2024-02-26T06:26:05;13.2;;;10.1;;
77748;SDS011;66938;52.084;5.228;2024-02-26T06:29:18;12.6;;;9.6;;
77748;SDS011;66938;52.084;5.228;2024-02-26T06:30:55;12.7;;;9.71;;
77748;SDS011;66938;52.084;5.228;2024-02-26T06:32:32;12.8;;;10.0;;
77748;SDS011;66938;52.084;5.228;2024-02-26T06:34:10;12.9;;;9.9;;
77748;SDS011;66938;52.084;5.228;2024-02-26T06:37:24;13.5;;;9.6;;
77748;SDS011;66938;52.084;5.228;2024-02-26T06:39:01;13.7;;;10.4;;
77748;SDS011;66938;52.084;5.228;2024-02-26T06:40:38;13.3;;;10.1;;
77748;SDS011;66938;52.084;5.228;2024-02-26T06:43:51;14.8;;;10.6;;
77748;SDS011;66938;52.084;5.228;2024-02-26T06:45:28;12.9;;;10.0;;
77748;SDS011;66938;52.084;5.228;2024-02-26T06:47:04;13.3;;;9.9;;
77748;SDS011;66938;52.084;5.228;2024-02-26T06:48:41;14.1;;;10.5;;
77748;SDS011;66938;52.084;5.228;2024-02-26T06:51:54;14.5;;;10.8;;
77748;SDS011;66938;52.084;5.228;2024-02-26T06:53:31;15.0;;;10.7;;
77748;SDS011;66938;52.084;5.228;2024-02-26T06:55:08;14.0;;;10.7;;
77748;SDS011;66938;52.084;5.228;2024-02-26T06:58:22;15.2;;;11.2;;
77748;SDS011;66938;52.084;5.228;2024-02-26T06:59:59;14.8;;;11.3;;
77748;SDS011;66938;52.084;5.228;2024-02-26T07:01:36;17.91;;;12.4;;
77748;SDS011;66938;52.084;5.228;2024-02-26T07:04:50;16.4;;;12.2;;
77748;SDS011;66938;52.084;5.228;2024-02-26T07:06:27;18.41;;;12.6;;
77748;SDS011;66938;52.084;5.228;2024-02-26T07:08:05;18.41;;;13.0;;
77748;SDS011;66938;52.084;5.228;2024-02-26T07:09:43;18.41;;;13.6;;
77748;SDS011;66938;52.084;5.228;2024-02-26T07:12:56;22.1;;;14.2;;
77748;SDS011;66938;52.084;5.228;2024-02-26T07:14:32;21.9;;;14.7;;
77748;SDS011;66938;52.084;5.228;2024-02-26T07:16:14;23.0;;;15.6;;
77748;SDS011;66938;52.084;5.228;2024-02-26T07:17:57;24.4;;;16.8;;
77748;SDS011;66938;52.084;5.228;2024-02-26T07:21:12;25.7;;;16.9;;
77748;SDS011;66938;52.084;5.228;2024-02-26T07:22:48;23.9;;;16.2;;
77748;SDS011;66938;52.084;5.228;2024-02-26T07:24:24;27.0;;;18.41;;
77748;SDS011;66938;52.084;5.228;2024-02-26T07:27:42;27.7;;;17.7;;
77748;SDS011;66938;52.084;5.228;2024-02-26T07:29:19;25.4;;;17.61;;
77748;SDS011;66938;52.084;5.228;2024-02-26T07:30:55;28.7;;;19.3;;
77748;SDS011;66938;52.084;5.228;2024-02-26T07:34:10;28.3;;;19.0;;
77748;SDS011;66938;52.084;5.228;2024-02-26T07:35:47;27.2;;;18.5;;
77748;SDS011;66938;52.084;5.228;2024-02-26T07:37:24;27.1;;;19.2;;
77748;SDS011;66938;52.084;5.228;2024-02-26T07:39:01;29.7;;;20.0;;
77748;SDS011;66938;52.084;5.228;2024-02-26T07:42:15;32.0;;;21.4;;
77748;SDS011;66938;52.084;5.228;2024-02-26T07:43:52;30.4;;;20.6;;
77748;SDS011;66938;52.084;5.228;2024-02-26T07:45:29;31.3;;;20.7;;
77748;SDS011;66938;52.084;5.228;2024-02-26T07:48:41;29.6;;;20.9;;
77748;SDS011;66938;52.084;5.228;2024-02-26T07:50:18;32.1;;;21.3;;
77748;SDS011;66938;52.084;5.228;2024-02-26T07:51:54;30.1;;;20.7;;
77748;SDS011;66938;52.084;5.228;2024-02-26T07:55:08;28.3;;;20.41;;
77748;SDS011;66938;52.084;5.228;2024-02-26T07:56:46;29.3;;;20.8;;
77748;SDS011;66938;52.084;5.228;2024-02-26T07:58:23;29.9;;;20.9;;
77748;SDS011;66938;52.084;5.228;2024-02-26T08:00:00;29.6;;;20.3;;
77748;SDS011;66938;52.084;5.228;2024-02-26T08:03:13;28.6;;;20.41;;
77748;SDS011;66938;52.084;5.228;2024-02-26T08:04:50;28.1;;;20.41;;
77748;SDS011;66938;52.084;5.228;2024-02-26T08:06:27;29.6;;;21.3;;
77748;SDS011;66938;52.084;5.228;2024-02-26T08:09:41;28.3;;;20.5;;
77748;SDS011;66938;52.084;5.228;2024-02-26T08:11:18;29.5;;;20.9;;
77748;SDS011;66938;52.084;5.228;2024-02-26T08:12:55;28.0;;;20.2;;
77748;SDS011;66938;52.084;5.228;2024-02-26T08:14:31;25.9;;;18.7;;
77748;SDS011;66938;52.084;5.228;2024-02-26T08:17:45;24.6;;;18.41;;
77748;SDS011;66938;52.084;5.228;2024-02-26T08:19:22;22.3;;;16.9;;
77748;SDS011;66938;52.084;5.228;2024-02-26T08:20:59;22.8;;;16.8;;
77748;SDS011;66938;52.084;5.228;2024-02-26T08:24:14;23.9;;;17.0;;
77748;SDS011;66938;52.084;5.228;2024-02-26T08:25:51;21.5;;;16.5;;
77748;SDS011;66938;52.084;5.228;2024-02-26T08:27:28;21.8;;;16.3;;
77748;SDS011;66938;52.084;5.228;2024-02-26T08:30:41;19.7;;;14.5;;
77748;SDS011;66938;52.084;5.228;2024-02-26T08:32:18;18.5;;;14.2;;
77748;SDS011;66938;52.084;5.228;2024-02-26T08:33:55;20.0;;;14.2;;
77748;SDS011;66938;52.084;5.228;2024-02-26T08:35:32;18.41;;;13.7;;
77748;SDS011;66938;52.084;5.228;2024-02-26T08:38:44;16.3;;;13.1;;
77748;SDS011;66938;52.084;5.228;2024-02-26T08:40:21;17.8;;;12.8;;
77748;SDS011;66938;52.084;5.228;2024-02-26T08:41:58;15.7;;;12.8;;
77748;SDS011;66938;52.084;5.228;2024-02-26T08:45:11;14.8;;;11.5;;
77748;SDS011;66938;52.084;5.228;2024-02-26T08:46:49;15.3;;;12.0;;
77748;SDS011;66938;52.084;5.228;2024-02-26T08:48:25;16.4;;;11.8;;
77748;SDS011;66938;52.084;5.228;2024-02-26T08:50:02;14.8;;;10.8;;
77748;SDS011;66938;52.084;5.228;2024-02-26T08:53:18;14.1;;;10.8;;
77748;SDS011;66938;52.084;5.228;2024-02-26T08:56:32;15.6;;;11.2;;
77748;SDS011;66938;52.084;5.228;2024-02-26T08:59:47;13.7;;;10.7;;
77748;SDS011;66938;52.084;5.228;2024-02-26T09:01:24;14.8;;;10.5;;
77748;SDS011;66938;52.084;5.228;2024-02-26T09:03:01;14.6;;;11.3;;
77748;SDS011;66938;52.084;5.228;2024-02-26T09:06:14;14.2;;;11.0;;
77748;SDS011;66938;52.084;5.228;2024-02-26T09:07:51;14.4;;;10.4;;
77748;SDS011;66938;52.084;5.228;2024-02-26T09:09:28;12.5;;;9.5;;
77748;SDS011;66938;52.084;5.228;2024-02-26T09:11:05;12.6;;;9.71;;
77748;SDS011;66938;52.084;5.228;2024-02-26T09:14:18;13.4;;;9.9;;
77748;SDS011;66938;52.084;5.228;2024-02-26T09:15:55;13.1;;;9.5;;
77748;SDS011;66938;52.084;5.228;2024-02-26T09:17:32;11.5;;;9.21;;
77748;SDS011;66938;52.084;5.228;2024-02-26T09:20:47;12.4;;;9.6;;
77748;SDS011;66938;52.084;5.228;2024-02-26T09:22:24;11.7;;;9.0;;
77748;SDS011;66938;52.084;5.228;2024-02-26T09:24:01;11.8;;;9.21;;
77748;SDS011;66938;52.084;5.228;2024-02-26T09:25:38;11.3;;;8.81;;
77748;SDS011;66938;52.084;5.228;2024-02-26T09:28:52;13.3;;;9.5;;
77748;SDS011;66938;52.084;5.228;2024-02-26T09:30:29;10.9;;;8.81;;
77748;SDS011;66938;52.084;5.228;2024-02-26T09:32:07;12.5;;;8.71;;
77748;SDS011;66938;52.084;5.228;2024-02-26T09:35:21;10.4;;;7.9;;
77748;SDS011;66938;52.084;5.228;2024-02-26T09:36:58;11.4;;;8.4;;
77748;SDS011;66938;52.084;5.228;2024-02-26T09:38:35;12.3;;;8.4;;
77748;SDS011;66938;52.084;5.228;2024-02-26T09:40:12;10.9;;;7.6;;
77748;SDS011;66938;52.084;5.228;2024-02-26T09:43:25;10.0;;;7.8;;
77748;SDS011;66938;52.084;5.228;2024-02-26T09:45:11;10.21;;;7.4;;
77748;SDS011;66938;52.084;5.228;2024-02-26T09:46:53;10.21;;;7.8;;
77748;SDS011;66938;52.084;5.228;2024-02-26T09:50:09;10.8;;;7.5;;
77748;SDS011;66938;52.084;5.228;2024-02-26T09:51:46;10.4;;;7.8;;
77748;SDS011;66938;52.084;5.228;2024-02-26T09:53:25;9.4;;;7.2;;
77748;SDS011;66938;52.084;5.228;2024-02-26T09:55:06;8.81;;;6.7;;
77748;SDS011;66938;52.084;5.228;2024-02-26T09:58:28;9.81;;;7.5;;
77748;SDS011;66938;52.084;5.228;2024-02-26T10:00:08;9.31;;;7.0;;
77748;SDS011;66938;52.084;5.228;2024-02-26T10:01:51;9.4;;;7.0;;
77748;SDS011;66938;52.084;5.228;2024-02-26T10:03:31;9.9;;;7.1;;
77748;SDS011;66938;52.084;5.228;2024-02-26T10:06:53;9.71;;;7.3;;
77748;SDS011;66938;52.084;5.228;2024-02-26T10:08:31;10.3;;;7.1;;
77748;SDS011;66938;52.084;5.228;2024-02-26T10:10:09;9.5;;;6.9;;
77748;SDS011;66938;52.084;5.228;2024-02-26T10:11:46;9.9;;;7.3;;
77748;SDS011;66938;52.084;5.228;2024-02-26T10:15:01;9.6;;;7.2;;
77748;SDS011;66938;52.084;5.228;2024-02-26T10:16:38;10.1;;;7.1;;
77748;SDS011;66938;52.084;5.228;2024-02-26T10:18:15;9.71;;;7.3;;
77748;SDS011;66938;52.084;5.228;2024-02-26T10:21:29;9.0;;;7.0;;
77748;SDS011;66938;52.084;5.228;2024-02-26T10:23:06;9.9;;;7.5;;
77748;SDS011;66938;52.084;5.228;2024-02-26T10:24:44;9.9;;;7.5;;
77748;SDS011;66938;52.084;5.228;2024-02-26T10:26:23;9.0;;;7.2;;
77748;SDS011;66938;52.084;5.228;2024-02-26T10:29:38;10.0;;;7.3;;
77748;SDS011;66938;52.084;5.228;2024-02-26T10:31:15;10.5;;;7.4;;
77748;SDS011;66938;52.084;5.228;2024-02-26T10:32:52;9.9;;;7.4;;
77748;SDS011;66938;52.084;5.228;2024-02-26T10:36:07;10.4;;;7.0;;
77748;SDS011;66938;52.084;5.228;2024-02-26T10:37:45;9.71;;;7.3;;
77748;SDS011;66938;52.084;5.228;2024-02-26T10:39:25;9.9;;;7.3;;
77748;SDS011;66938;52.084;5.228;2024-02-26T10:41:02;10.21;;;7.3;;
77748;SDS011;66938;52.084;5.228;2024-02-26T10:44:17;9.21;;;7.0;;
77748;SDS011;66938;52.084;5.228;2024-02-26T10:45:54;10.6;;;7.2;;
77748;SDS011;66938;52.084;5.228;2024-02-26T10:47:31;10.4;;;6.9;;
77748;SDS011;66938;52.084;5.228;2024-02-26T10:50:53;9.31;;;7.1;;
77748;SDS011;66938;52.084;5.228;2024-02-26T10:52:31;8.81;;;6.9;;
77748;SDS011;66938;52.084;5.228;2024-02-26T10:54:09;9.4;;;7.2;;
77748;SDS011;66938;52.084;5.228;2024-02-26T10:55:53;9.4;;;7.2;;
77748;SDS011;66938;52.084;5.228;2024-02-26T10:59:12;9.1;;;6.8;;
77748;SDS011;66938;52.084;5.228;2024-02-26T11:00:50;9.1;;;7.4;;
77748;SDS011;66938;52.084;5.228;2024-02-26T11:02:28;9.4;;;6.9;;
77748;SDS011;66938;52.084;5.228;2024-02-26T11:04:06;9.4;;;6.8;;
77748;SDS011;66938;52.084;5.228;2024-02-26T11:07:24;9.1;;;6.7;;
77748;SDS011;66938;52.084;5.228;2024-02-26T11:09:03;9.4;;;7.3;;
77748;SDS011;66938;52.084;5.228;2024-02-26T11:10:42;9.1;;;7.0;;
77748;SDS011;66938;52.084;5.228;2024-02-26T11:12:20;9.21;;;7.0;;
77748;SDS011;66938;52.084;5.228;2024-02-26T11:15:39;8.71;;;6.8;;
77748;SDS011;66938;52.084;5.228;2024-02-26T11:17:17;9.1;;;6.9;;
77748;SDS011;66938;52.084;5.228;2024-02-26T11:18:57;10.21;;;7.2;;
77748;SDS011;66938;52.084;5.228;2024-02-26T11:22:14;9.71;;;7.5;;
77748;SDS011;66938;52.084;5.228;2024-02-26T11:23:51;9.81;;;7.3;;
77748;SDS011;66938;52.084;5.228;2024-02-26T11:25:28;8.6;;;6.6;;
77748;SDS011;66938;52.084;5.228;2024-02-26T11:27:06;8.71;;;6.8;;
77748;SDS011;66938;52.084;5.228;2024-02-26T11:30:22;8.4;;;6.7;;
77748;SDS011;66938;52.084;5.228;2024-02-26T11:32:00;8.81;;;6.9;;
77748;SDS011;66938;52.084;5.228;2024-02-26T11:33:37;8.81;;;6.9;;
77748;SDS011;66938;52.084;5.228;2024-02-26T11:36:52;9.71;;;7.3;;
77748;SDS011;66938;52.084;5.228;2024-02-26T11:38:31;11.3;;;7.8;;
77748;SDS011;66938;52.084;5.228;2024-02-26T11:40:10;10.1;;;7.7;;
77748;SDS011;66938;52.084;5.228;2024-02-26T11:41:49;9.21;;;6.9;;
77748;SDS011;66938;52.084;5.228;2024-02-26T11:46:03;9.9;;;6.7;;
77748;SDS011;66938;52.084;5.228;2024-02-26T11:47:40;9.81;;;7.1;;
77748;SDS011;66938;52.084;5.228;2024-02-26T11:49:36;8.71;;;6.9;;
77748;SDS011;66938;52.084;5.228;2024-02-26T11:51:12;9.1;;;6.7;;
77748;SDS011;66938;52.084;5.228;2024-02-26T11:53:18;8.9;;;7.0;;
77748;SDS011;66938;52.084;5.228;2024-02-26T11:54:56;8.9;;;7.0;;
77748;SDS011;66938;52.084;5.228;2024-02-26T11:56:34;8.31;;;6.6;;
77748;SDS011;66938;52.084;5.228;2024-02-26T11:59:48;9.5;;;7.1;;
77748;SDS011;66938;52.084;5.228;2024-02-26T12:01:37;9.6;;;7.6;;
77748;SDS011;66938;52.084;5.228;2024-02-26T12:03:16;9.31;;;7.1;;
77748;SDS011;66938;52.084;5.228;2024-02-26T12:04:53;9.4;;;7.4;;
77748;SDS011;66938;52.084;5.228;2024-02-26T12:08:08;9.4;;;7.1;;
77748;SDS011;66938;52.084;5.228;2024-02-26T12:09:44;9.4;;;7.5;;
77748;SDS011;66938;52.084;5.228;2024-02-26T12:11:21;9.6;;;7.2;;
77748;SDS011;66938;52.084;5.228;2024-02-26T12:12:58;8.9;;;7.2;;
77748;SDS011;66938;52.084;5.228;2024-02-26T12:16:28;9.9;;;7.7;;
77748;SDS011;66938;52.084;5.228;2024-02-26T12:18:15;9.4;;;7.5;;
77748;SDS011;66938;52.084;5.228;2024-02-26T12:19:55;10.1;;;7.6;;
77748;SDS011;66938;52.084;5.228;2024-02-26T12:21:44;10.5;;;7.6;;
77748;SDS011;66938;52.084;5.228;2024-02-26T12:24:58;8.6;;;6.6;;
77748;SDS011;66938;52.084;5.228;2024-02-26T12:26:36;9.4;;;6.9;;
77748;SDS011;66938;52.084;5.228;2024-02-26T12:28:13;9.21;;;7.1;;
77748;SDS011;66938;52.084;5.228;2024-02-26T12:29:50;9.6;;;7.0;;
77748;SDS011;66938;52.084;5.228;2024-02-26T12:33:06;9.5;;;6.8;;
77748;SDS011;66938;52.084;5.228;2024-02-26T12:34:44;9.4;;;7.1;;
77748;SDS011;66938;52.084;5.228;2024-02-26T12:36:21;8.71;;;7.1;;
77748;SDS011;66938;52.084;5.228;2024-02-26T12:39:36;8.71;;;6.8;;
77748;SDS011;66938;52.084;5.228;2024-02-26T12:41:14;8.31;;;6.5;;
77748;SDS011;66938;52.084;5.228;2024-02-26T12:42:52;8.5;;;6.7;;
77748;SDS011;66938;52.084;5.228;2024-02-26T12:44:30;8.9;;;7.1;;
77748;SDS011;66938;52.084;5.228;2024-02-26T12:47:45;9.4;;;6.9;;
77748;SDS011;66938;52.084;5.228;2024-02-26T12:49:22;9.81;;;7.2;;
77748;SDS011;66938;52.084;5.228;2024-02-26T12:50:59;8.2;;;6.6;;
77748;SDS011;66938;52.084;5.228;2024-02-26T12:54:21;8.1;;;6.7;;